createdAt,value
2024-02-24T00:01:59.543Z,98692.84
2024-02-24T00:04:27.021Z,98693.56
2024-02-24T00:06:54.462Z,98687.22
2024-02-24T00:09:21.896Z,98690.59
2024-02-24T00:11:49.456Z,98674.19
2024-02-24T00:14:17.288Z,98686.16
2024-02-24T00:16:44.718Z,98682.84
2024-02-24T00:19:13.442Z,98691.72
2024-02-24T00:21:40.860Z,98681.72
2024-02-24T00:24:08.370Z,98676.28
2024-02-24T00:26:35.912Z,98680.19
2024-02-24T00:29:03.435Z,98681.25
2024-02-24T00:31:30.865Z,98685.44
2024-02-24T00:33:58.345Z,98700.22
2024-02-24T00:36:27.510Z,98679.41
2024-02-24T00:38:54.951Z,98678.13
2024-02-24T00:41:22.428Z,98688.03
2024-02-24T00:43:49.848Z,98700.84
2024-02-24T00:46:17.245Z,98710.00
2024-02-24T00:48:44.702Z,98698.72
2024-02-24T00:51:12.212Z,98701.19
2024-02-24T00:53:41.188Z,98699.81
2024-02-24T00:56:08.716Z,98698.94
2024-02-24T00:58:36.128Z,98695.69
2024-02-24T01:01:04.339Z,98689.72
2024-02-24T01:03:31.815Z,98692.50
2024-02-24T01:05:59.264Z,98685.97
2024-02-24T01:08:26.703Z,98686.53
2024-02-24T01:10:55.474Z,98682.91
2024-02-24T01:13:22.987Z,98683.03
2024-02-24T01:15:50.388Z,98679.06
2024-02-24T01:18:17.940Z,98682.53
2024-02-24T01:20:49.508Z,98673.41
2024-02-24T01:23:17.205Z,98672.28
2024-02-24T01:25:45.646Z,98673.31
2024-02-24T01:28:14.555Z,98673.03
2024-02-24T01:30:41.952Z,98660.56
2024-02-24T01:33:10.888Z,98665.06
2024-02-24T01:35:38.430Z,98668.09
2024-02-24T01:38:06.924Z,98672.00
2024-02-24T01:40:34.397Z,98662.84
2024-02-24T01:43:01.837Z,98667.72
2024-02-24T01:45:30.626Z,98673.41
2024-02-24T01:47:58.671Z,98662.69
2024-02-24T01:50:26.525Z,98665.06
2024-02-24T01:52:55.024Z,98670.56
2024-02-24T01:55:22.494Z,98674.47
2024-02-24T01:57:53.949Z,98664.31
2024-02-24T02:00:21.791Z,98667.66
2024-02-24T02:02:51.166Z,98681.00
2024-02-24T02:05:18.695Z,98680.84
2024-02-24T02:07:46.157Z,98697.38
2024-02-24T02:10:13.655Z,98700.91
2024-02-24T02:12:41.162Z,98695.47
2024-02-24T02:15:09.826Z,98687.78
2024-02-24T02:17:38.041Z,98695.16
2024-02-24T02:20:09.239Z,98694.41
2024-02-24T02:22:38.151Z,98692.00
2024-02-24T02:25:06.283Z,98687.97
2024-02-24T02:27:33.637Z,98689.44
2024-02-24T02:30:02.627Z,98700.16
2024-02-24T02:32:30.251Z,98700.22
2024-02-24T02:34:58.213Z,98699.34
2024-02-24T02:37:25.623Z,98704.97
2024-02-24T02:39:54.374Z,98704.38
2024-02-24T02:42:21.981Z,98709.22
2024-02-24T02:44:49.456Z,98710.81
2024-02-24T02:47:19.993Z,98711.22
2024-02-24T02:49:51.276Z,98717.84
2024-02-24T02:52:18.732Z,98710.69
2024-02-24T02:54:46.214Z,98718.38
2024-02-24T02:57:14.946Z,98729.56
2024-02-24T02:59:42.474Z,98730.78
2024-02-24T03:02:10.015Z,98729.56
2024-02-24T03:04:37.450Z,98735.38
2024-02-24T03:07:05.054Z,98724.91
2024-02-24T03:09:32.497Z,98729.47
2024-02-24T03:12:00.160Z,98734.41
2024-02-24T03:14:29.092Z,98726.78
2024-02-24T03:16:56.541Z,98727.75
2024-02-24T03:19:24.106Z,98726.63
2024-02-24T03:21:51.593Z,98732.44
2024-02-24T03:24:19.003Z,98730.72
2024-02-24T03:26:46.449Z,98735.31
2024-02-24T03:29:13.920Z,98727.50
2024-02-24T03:31:42.752Z,98733.84
2024-02-24T03:34:10.263Z,98736.94
2024-02-24T03:36:37.774Z,98739.34
2024-02-24T03:39:05.399Z,98744.50
2024-02-24T03:41:33.403Z,98740.06
2024-02-24T03:44:01.001Z,98736.06
2024-02-24T03:46:28.478Z,98729.88
2024-02-24T03:48:57.432Z,98727.91
2024-02-24T03:51:25.001Z,98726.56
2024-02-24T03:53:52.398Z,98732.38
2024-02-24T03:56:19.884Z,98733.22
2024-02-24T03:58:47.441Z,98737.22
2024-02-24T04:01:14.888Z,98740.41
2024-02-24T04:03:42.413Z,98738.31
2024-02-24T04:06:11.260Z,98739.59
2024-02-24T04:08:38.676Z,98738.16
2024-02-24T04:11:06.254Z,98745.34
2024-02-24T04:13:33.785Z,98760.19
2024-02-24T04:16:01.206Z,98751.59
2024-02-24T04:18:28.716Z,98760.19
2024-02-24T04:20:56.300Z,98754.09
2024-02-24T04:23:25.147Z,98765.41
2024-02-24T04:25:52.620Z,98757.94
2024-02-24T04:28:22.628Z,98761.28
2024-02-24T04:30:50.512Z,98758.91
2024-02-24T04:33:19.036Z,98755.06
2024-02-24T04:35:47.035Z,98761.78
2024-02-24T04:38:14.491Z,98769.19
2024-02-24T04:40:43.429Z,98759.69
2024-02-24T04:43:10.865Z,98768.16
2024-02-24T04:45:38.528Z,98770.50
2024-02-24T04:48:06.752Z,98775.91
2024-02-24T04:50:34.309Z,98779.25
2024-02-24T04:53:01.747Z,98777.88
2024-02-24T04:55:29.167Z,98790.09
2024-02-24T04:57:57.943Z,98788.50
2024-02-24T05:00:26.331Z,98800.22
2024-02-24T05:02:54.022Z,98796.78
2024-02-24T05:05:21.738Z,98795.66
2024-02-24T05:07:49.313Z,98798.22
2024-02-24T05:10:16.791Z,98794.69
2024-02-24T05:12:48.796Z,98789.22
2024-02-24T05:15:19.355Z,98810.13
2024-02-24T05:17:47.168Z,98806.63
2024-02-24T05:20:14.955Z,98809.50
2024-02-24T05:22:42.611Z,98807.84
2024-02-24T05:25:10.598Z,98813.16
2024-02-24T05:27:38.522Z,98817.94
2024-02-24T05:30:07.282Z,98805.47
2024-02-24T05:32:36.193Z,98801.34
2024-02-24T05:35:03.750Z,98799.19
2024-02-24T05:37:31.154Z,98800.78
2024-02-24T05:39:59.573Z,98805.72
2024-02-24T05:42:27.511Z,98810.78
2024-02-24T05:44:55.007Z,98810.31
2024-02-24T05:47:22.521Z,98812.16
2024-02-24T05:49:51.321Z,98811.00
2024-02-24T05:52:19.474Z,98815.75
2024-02-24T05:54:46.923Z,98808.03
2024-02-24T05:57:14.411Z,98819.00
2024-02-24T05:59:41.847Z,98823.63
2024-02-24T06:02:09.305Z,98824.31
2024-02-24T06:04:37.503Z,98814.16
2024-02-24T06:07:06.534Z,98822.09
2024-02-24T06:09:33.944Z,98829.41
2024-02-24T06:12:01.462Z,98825.81
2024-02-24T06:14:29.016Z,98836.88
2024-02-24T06:16:56.461Z,98838.47
2024-02-24T06:19:23.974Z,98845.09
2024-02-24T06:21:51.473Z,98849.72
2024-02-24T06:24:20.917Z,98850.19
2024-02-24T06:26:48.475Z,98846.00
2024-02-24T06:29:17.089Z,98852.00
2024-02-24T06:31:44.562Z,98851.19
2024-02-24T06:34:12.058Z,98855.25
2024-02-24T06:36:39.530Z,98866.09
2024-02-24T06:39:08.491Z,98869.19
2024-02-24T06:41:37.369Z,98864.94
2024-02-24T06:44:05.087Z,98863.31
2024-02-24T06:46:32.584Z,98864.00
2024-02-24T06:49:00.298Z,98868.34
2024-02-24T06:51:27.893Z,98865.56
2024-02-24T06:53:55.848Z,98868.25
2024-02-24T06:56:23.475Z,98876.38
2024-02-24T06:58:52.270Z,98872.72
2024-02-24T07:01:23.665Z,98868.47
2024-02-24T07:03:51.240Z,98878.41
2024-02-24T07:06:19.829Z,98885.69
2024-02-24T07:08:47.814Z,98882.56
2024-02-24T07:11:15.439Z,98888.50
2024-02-24T07:13:42.929Z,98885.97
2024-02-24T07:16:12.350Z,98888.06
2024-02-24T07:18:39.859Z,98887.81
2024-02-24T07:21:07.823Z,98898.31
2024-02-24T07:23:35.498Z,98899.91
2024-02-24T07:26:03.739Z,98898.16
2024-02-24T07:28:32.248Z,98909.00
2024-02-24T07:30:59.743Z,98919.28
2024-02-24T07:33:28.627Z,98915.75
2024-02-24T07:35:56.231Z,98917.63
2024-02-24T07:38:23.724Z,98925.16
2024-02-24T07:40:51.255Z,98931.41
2024-02-24T07:43:18.693Z,98940.13
2024-02-24T07:45:46.151Z,98932.03
2024-02-24T07:48:13.966Z,98925.53
2024-02-24T07:50:42.770Z,98934.38
2024-02-24T07:53:10.259Z,98931.28
2024-02-24T07:55:37.754Z,98936.88
2024-02-24T07:58:05.487Z,98929.19
2024-02-24T08:00:32.919Z,98943.25
2024-02-24T08:03:01.651Z,98940.38
2024-02-24T08:05:29.118Z,98939.59
2024-02-24T08:07:57.846Z,98948.03
2024-02-24T08:10:25.255Z,98947.97
2024-02-24T08:12:53.745Z,98953.19
2024-02-24T08:15:21.194Z,98956.66
2024-02-24T08:17:48.660Z,98950.84
2024-02-24T08:20:16.194Z,98952.16
2024-02-24T08:22:44.861Z,98961.16
2024-02-24T08:25:13.674Z,98966.47
2024-02-24T08:27:41.136Z,98962.53
2024-02-24T08:30:10.272Z,98950.63
2024-02-24T08:32:37.810Z,98955.97
2024-02-24T08:35:06.518Z,98962.50
2024-02-24T08:37:34.125Z,98971.25
2024-02-24T08:40:01.544Z,98968.19
2024-02-24T08:42:30.274Z,98970.69
2024-02-24T08:44:57.801Z,98980.16
2024-02-24T08:47:25.316Z,98987.63
2024-02-24T08:49:52.799Z,98991.78
2024-02-24T08:52:22.739Z,98985.34
2024-02-24T08:54:57.307Z,98982.19
2024-02-24T08:57:24.822Z,98987.53
2024-02-24T08:59:53.587Z,98985.56
2024-02-24T09:02:21.962Z,98986.72
2024-02-24T09:04:49.400Z,98980.94
2024-02-24T09:07:16.905Z,98974.75
2024-02-24T09:09:44.351Z,98977.72
2024-02-24T09:12:11.807Z,98976.34
2024-02-24T09:14:39.322Z,98982.47
2024-02-24T09:17:08.134Z,98987.66
2024-02-24T09:19:35.641Z,98992.13
2024-02-24T09:22:03.153Z,98989.31
2024-02-24T09:24:30.578Z,98983.16
2024-02-24T09:26:58.044Z,98989.25
2024-02-24T09:29:25.514Z,98981.63
2024-02-24T09:31:52.975Z,98981.59
2024-02-24T09:34:21.849Z,98990.16
2024-02-24T09:36:49.298Z,98996.47
2024-02-24T09:39:16.737Z,98989.19
2024-02-24T09:41:44.277Z,98991.81
2024-02-24T09:44:11.941Z,98984.94
2024-02-24T09:46:41.863Z,98989.03
2024-02-24T09:49:13.959Z,98997.81
2024-02-24T09:51:47.354Z,98997.34
2024-02-24T09:54:15.072Z,98992.19
2024-02-24T09:56:44.126Z,98998.13
2024-02-24T09:59:12.292Z,98999.44
2024-02-24T10:01:39.790Z,99006.28
2024-02-24T10:04:08.314Z,99009.00
2024-02-24T10:06:36.021Z,99014.22
2024-02-24T10:09:05.646Z,99025.00
2024-02-24T10:11:35.273Z,99023.06
2024-02-24T10:14:02.803Z,99028.91
2024-02-24T10:16:30.238Z,99030.16
2024-02-24T10:18:57.741Z,99028.84
2024-02-24T10:21:25.224Z,99025.31
2024-02-24T10:23:52.742Z,99026.56
2024-02-24T10:26:21.959Z,99038.50
2024-02-24T10:28:49.457Z,99036.03
2024-02-24T10:31:16.988Z,99033.81
2024-02-24T10:33:45.118Z,99018.69
2024-02-24T10:36:13.901Z,99028.06
2024-02-24T10:38:48.229Z,99034.53
2024-02-24T10:41:23.589Z,99043.41
2024-02-24T10:44:01.756Z,99051.06
2024-02-24T10:46:33.748Z,99061.31
2024-02-24T10:49:01.847Z,99060.28
2024-02-24T10:51:29.361Z,99070.09
2024-02-24T10:54:00.817Z,99059.75
2024-02-24T10:56:30.847Z,99065.47
2024-02-24T10:59:07.647Z,99064.72
2024-02-24T11:01:42.600Z,99056.66
2024-02-24T11:04:11.703Z,99072.69
2024-02-24T11:06:45.846Z,99080.06
2024-02-24T11:09:17.064Z,99066.34
2024-02-24T11:11:46.524Z,99083.66
2024-02-24T11:14:14.072Z,99081.03
2024-02-24T11:16:43.253Z,99073.31
2024-02-24T11:19:13.535Z,99072.16
2024-02-24T11:22:01.828Z,99072.97
2024-02-24T11:24:33.641Z,99067.53
2024-02-24T11:27:03.201Z,99069.13
2024-02-24T11:29:31.349Z,99071.16
2024-02-24T11:32:11.079Z,99065.50
2024-02-24T11:34:38.823Z,99081.34
2024-02-24T11:37:06.547Z,99067.53
2024-02-24T11:42:12.190Z,99074.44
2024-02-24T11:44:44.426Z,99081.69
2024-02-24T11:47:11.901Z,99083.25
2024-02-24T11:49:45.640Z,99081.28
2024-02-24T11:52:13.207Z,99084.47
2024-02-24T11:54:41.002Z,99088.34
2024-02-24T11:57:11.393Z,99087.72
2024-02-24T11:59:39.222Z,99086.13
2024-02-24T12:02:06.770Z,99103.63
2024-02-24T12:04:34.554Z,99095.16
2024-02-24T12:07:05.431Z,99101.78
2024-02-24T12:09:33.137Z,99101.09
2024-02-24T12:12:00.858Z,99100.84
2024-02-24T12:14:30.970Z,99106.16
2024-02-24T12:16:58.946Z,99097.56
2024-02-24T12:19:29.366Z,99102.28
2024-02-24T12:21:57.223Z,99114.41
2024-02-24T12:24:29.076Z,99113.16
2024-02-24T12:27:00.698Z,99123.00
2024-02-24T12:29:31.683Z,99125.03
2024-02-24T12:31:59.284Z,99127.84
2024-02-24T12:34:26.925Z,99139.72
2024-02-24T12:36:57.727Z,99138.69
2024-02-24T12:39:26.385Z,99137.50
2024-02-24T12:41:54.211Z,99129.38
2024-02-24T12:44:21.786Z,99140.56
2024-02-24T12:46:50.744Z,99138.72
2024-02-24T12:49:18.318Z,99142.34
2024-02-24T12:51:52.482Z,99145.53
2024-02-24T12:54:19.932Z,99137.44
2024-02-24T12:56:47.417Z,99143.81
2024-02-24T12:59:15.366Z,99149.06
2024-02-24T13:01:42.826Z,99147.31
2024-02-24T13:04:11.603Z,99151.28
2024-02-24T13:06:40.595Z,99132.03
2024-02-24T13:09:08.332Z,99148.94
2024-02-24T13:11:35.896Z,99154.09
2024-02-24T13:14:03.400Z,99157.28
2024-02-24T13:16:30.841Z,99149.50
2024-02-24T13:18:58.638Z,99155.91
2024-02-24T13:21:27.503Z,99152.16
2024-02-24T13:23:55.161Z,99164.00
2024-02-24T13:26:22.647Z,99157.16
2024-02-24T13:28:50.074Z,99164.63
2024-02-24T13:31:22.346Z,99152.94
2024-02-24T13:33:51.084Z,99154.69
2024-02-24T13:36:18.620Z,99151.50
2024-02-24T13:38:47.415Z,99153.81
2024-02-24T13:41:14.991Z,99158.72
2024-02-24T13:43:42.513Z,99157.78
2024-02-24T13:46:09.968Z,99155.03
2024-02-24T13:48:37.434Z,99162.81
2024-02-24T13:51:05.836Z,99166.41
2024-02-24T13:53:33.504Z,99173.22
2024-02-24T13:56:02.726Z,99181.66
2024-02-24T13:58:31.135Z,99177.63
2024-02-24T14:01:00.131Z,99187.84
2024-02-24T14:03:27.772Z,99199.16
2024-02-24T14:08:23.176Z,99199.72
2024-02-24T14:10:50.639Z,99196.50
2024-02-24T14:13:19.395Z,99200.88
2024-02-24T14:15:47.967Z,99206.97
2024-02-24T14:18:15.800Z,99212.25
2024-02-24T14:20:43.456Z,99221.38
2024-02-24T14:23:10.992Z,99216.59
2024-02-24T14:25:38.436Z,99212.13
2024-02-24T14:28:11.162Z,99214.50
2024-02-24T14:30:40.357Z,99217.81
2024-02-24T14:33:08.170Z,99227.44
2024-02-24T14:35:39.398Z,99234.69
2024-02-24T14:38:07.067Z,99237.91
2024-02-24T14:40:34.498Z,99230.28
2024-02-24T14:43:02.150Z,99246.34
2024-02-24T14:45:31.308Z,99235.91
2024-02-24T14:48:04.254Z,99238.31
2024-02-24T14:50:33.391Z,99241.06
2024-02-24T14:53:00.928Z,99243.53
2024-02-24T14:55:28.339Z,99246.75
2024-02-24T14:57:56.194Z,99238.31
2024-02-24T15:00:24.062Z,99237.47
2024-02-24T15:03:04.486Z,99251.13
2024-02-24T15:05:39.216Z,99235.91
2024-02-24T15:08:07.604Z,99246.31
2024-02-24T15:10:35.063Z,99242.69
2024-02-24T15:13:02.524Z,99241.13
2024-02-24T15:15:30.231Z,99251.56
2024-02-24T15:17:59.778Z,99244.59
2024-02-24T15:20:27.442Z,99246.72
2024-02-24T15:22:56.209Z,99246.31
2024-02-24T15:25:23.747Z,99245.91
2024-02-24T15:27:51.181Z,99239.44
2024-02-24T15:30:18.752Z,99241.72
2024-02-24T15:32:46.240Z,99234.63
2024-02-24T15:35:13.875Z,99249.88
2024-02-24T15:37:41.361Z,99262.22
2024-02-24T15:40:12.348Z,99267.63
2024-02-24T15:42:40.092Z,99269.28
2024-02-24T15:45:08.396Z,99280.97
2024-02-24T15:47:36.881Z,99282.56
2024-02-24T15:50:05.284Z,99283.38
2024-02-24T15:52:32.750Z,99292.84
2024-02-24T15:55:00.211Z,99292.72
2024-02-24T15:57:28.933Z,99296.41
2024-02-24T15:59:56.982Z,99306.44
2024-02-24T16:02:25.112Z,99305.63
2024-02-24T16:04:52.614Z,99308.69
2024-02-24T16:07:20.081Z,99308.56
2024-02-24T16:09:47.563Z,99318.09
2024-02-24T16:12:17.926Z,99309.91
2024-02-24T16:14:46.807Z,99322.81
2024-02-24T16:17:16.593Z,99317.53
2024-02-24T16:19:44.065Z,99325.00
2024-02-24T16:22:11.540Z,99330.38
2024-02-24T16:24:38.954Z,99331.22
2024-02-24T16:27:06.995Z,99331.97
2024-02-24T16:29:35.213Z,99338.56
2024-02-24T16:32:07.482Z,99338.63
2024-02-24T16:34:37.120Z,99342.97
2024-02-24T16:37:04.929Z,99350.72
2024-02-24T16:39:33.762Z,99358.91
2024-02-24T16:42:01.987Z,99356.16
2024-02-24T16:44:29.716Z,99357.63
2024-02-24T16:46:57.266Z,99364.03
2024-02-24T16:49:26.035Z,99368.22
2024-02-24T16:51:53.916Z,99376.78
2024-02-24T16:54:21.693Z,99381.38
2024-02-24T16:56:49.177Z,99375.28
2024-02-24T16:59:16.725Z,99390.28
2024-02-24T17:01:44.600Z,99381.88
2024-02-24T17:04:12.447Z,99382.09
2024-02-24T17:06:41.706Z,99392.50
2024-02-24T17:09:09.981Z,99396.38
2024-02-24T17:11:37.877Z,99393.34
2024-02-24T17:14:05.391Z,99400.94
2024-02-24T17:16:32.815Z,99395.53
2024-02-24T17:19:00.363Z,99399.66
2024-02-24T17:21:30.877Z,99393.69
2024-02-24T17:24:00.706Z,99385.28
2024-02-24T17:26:28.241Z,99392.38
2024-02-24T17:28:55.706Z,99393.69
2024-02-24T17:31:23.149Z,99399.38
2024-02-24T17:33:50.622Z,99413.66
2024-02-24T17:36:18.172Z,99415.16
2024-02-24T17:38:45.742Z,99412.84
2024-02-24T17:41:15.816Z,99409.63
2024-02-24T17:43:43.345Z,99413.00
2024-02-24T17:46:10.749Z,99417.66
2024-02-24T17:48:38.289Z,99409.81
2024-02-24T17:51:06.488Z,99414.09
2024-02-24T17:53:33.959Z,99422.66
2024-02-24T17:56:01.609Z,99419.91
2024-02-24T17:58:40.049Z,99423.84
2024-02-24T18:01:11.882Z,99433.19
2024-02-24T18:03:39.375Z,99429.22
2024-02-24T18:06:07.162Z,99435.94
2024-02-24T18:08:34.705Z,99433.56
2024-02-24T18:11:02.159Z,99434.28
2024-02-24T18:13:30.932Z,99439.00
2024-02-24T18:15:58.375Z,99431.13
2024-02-24T18:18:25.925Z,99443.69
2024-02-24T18:20:53.742Z,99446.88
2024-02-24T18:23:21.249Z,99452.06
2024-02-24T18:25:48.669Z,99457.09
2024-02-24T18:28:16.095Z,99450.94
2024-02-24T18:30:45.036Z,99456.59
2024-02-24T18:33:12.568Z,99462.81
2024-02-24T18:35:40.108Z,99448.94
2024-02-24T18:38:07.520Z,99449.13
2024-02-24T18:40:34.917Z,99452.44
2024-02-24T18:43:02.321Z,99458.66
2024-02-24T18:45:29.755Z,99457.22
2024-02-24T18:47:58.610Z,99458.19
2024-02-24T18:50:26.150Z,99453.81
2024-02-24T18:52:53.766Z,99454.25
2024-02-24T18:55:21.218Z,99451.94
2024-02-24T18:57:48.618Z,99453.63
2024-02-24T19:00:17.143Z,99454.19
2024-02-24T19:02:44.653Z,99449.22
2024-02-24T19:05:13.759Z,99451.50
2024-02-24T19:07:43.857Z,99451.81
2024-02-24T19:10:11.432Z,99465.47
2024-02-24T19:12:38.856Z,99462.75
2024-02-24T19:15:06.947Z,99449.94
2024-02-24T19:17:34.672Z,99455.22
2024-02-24T19:20:05.455Z,99464.91
2024-02-24T19:22:34.216Z,99463.97
2024-02-24T19:25:02.202Z,99461.38
2024-02-24T19:27:29.760Z,99462.94
2024-02-24T19:29:57.269Z,99460.50
2024-02-24T19:32:24.856Z,99460.16
2024-02-24T19:34:53.291Z,99457.72
2024-02-24T19:37:21.142Z,99465.81
2024-02-24T19:39:50.275Z,99469.53
2024-02-24T19:42:17.717Z,99466.66
2024-02-24T19:44:45.115Z,99469.28
2024-02-24T19:47:13.436Z,99474.94
2024-02-24T19:49:41.027Z,99477.44
2024-02-24T19:52:08.561Z,99475.97
2024-02-24T19:54:36.260Z,99477.66
2024-02-24T19:57:05.318Z,99474.38
2024-02-24T19:59:33.968Z,99476.22
2024-02-24T20:02:01.423Z,99476.78
2024-02-24T20:04:31.083Z,99477.13
2024-02-24T20:06:58.763Z,99488.09
2024-02-24T20:09:26.245Z,99479.63
2024-02-24T20:11:53.699Z,99485.03
2024-02-24T20:14:22.557Z,99489.94
2024-02-24T20:16:49.989Z,99491.44
2024-02-24T20:19:17.497Z,99487.25
2024-02-24T20:21:44.966Z,99494.16
2024-02-24T20:24:12.392Z,99498.94
2024-02-24T20:26:39.933Z,99502.88
2024-02-24T20:29:08.842Z,99507.13
2024-02-24T20:31:37.656Z,99503.75
2024-02-24T20:34:08.361Z,99510.19
2024-02-24T20:36:36.622Z,99505.16
2024-02-24T20:39:04.419Z,99505.38
2024-02-24T20:41:32.107Z,99508.94
2024-02-24T20:44:01.203Z,99502.88
2024-02-24T20:46:28.706Z,99502.44
2024-02-24T20:48:57.525Z,99505.28
2024-02-24T20:51:25.553Z,99504.63
2024-02-24T20:53:53.450Z,99515.03
2024-02-24T20:56:21.017Z,99509.81
2024-02-24T20:58:48.418Z,99510.59
2024-02-24T21:01:15.858Z,99514.91
2024-02-24T21:03:43.476Z,99513.88
2024-02-24T21:06:12.369Z,99508.81
2024-02-24T21:08:39.935Z,99519.09
2024-02-24T21:11:08.061Z,99513.41
2024-02-24T21:13:35.829Z,99510.72
2024-02-24T21:16:03.250Z,99516.34
2024-02-24T21:18:32.060Z,99510.44
2024-02-24T21:20:59.745Z,99516.31
2024-02-24T21:23:29.251Z,99522.06
2024-02-24T21:25:56.805Z,99514.94
2024-02-24T21:28:24.214Z,99521.22
2024-02-24T21:30:51.712Z,99518.00
2024-02-24T21:33:19.429Z,99514.44
2024-02-24T21:35:49.710Z,99527.59
2024-02-24T21:38:17.158Z,99505.06
2024-02-24T21:40:45.898Z,99518.59
2024-02-24T21:43:13.313Z,99510.88
2024-02-24T21:45:40.761Z,99514.31
2024-02-24T21:48:09.104Z,99516.78
2024-02-24T21:50:37.249Z,99513.16
2024-02-24T21:53:05.037Z,99509.94
2024-02-24T21:55:33.344Z,99520.34
2024-02-24T21:58:02.076Z,99519.69
2024-02-24T22:00:29.652Z,99529.97
2024-02-24T22:02:57.896Z,99522.47
2024-02-24T22:05:25.471Z,99522.25
2024-02-24T22:07:53.000Z,99516.84
2024-02-24T22:10:20.638Z,99521.25
2024-02-24T22:12:48.057Z,99510.56
2024-02-24T22:15:18.706Z,99519.34
2024-02-24T22:17:46.919Z,99515.16
2024-02-24T22:20:14.553Z,99521.22
2024-02-24T22:22:42.069Z,99512.44
2024-02-24T22:25:09.999Z,99515.34
2024-02-24T22:27:38.393Z,99513.38
2024-02-24T22:30:13.390Z,99517.16
2024-02-24T22:32:45.706Z,99515.88
2024-02-24T22:35:13.493Z,99514.44
2024-02-24T22:37:41.069Z,99509.09
2024-02-24T22:40:09.921Z,99516.41
2024-02-24T22:42:37.345Z,99515.75
2024-02-24T22:45:07.626Z,99524.16
2024-02-24T22:47:35.199Z,99523.81
2024-02-24T22:50:04.341Z,99516.38
2024-02-24T22:52:31.769Z,99525.03
2024-02-24T22:54:59.251Z,99528.44
2024-02-24T22:57:26.668Z,99529.03
2024-02-24T22:59:54.143Z,99540.28
2024-02-24T23:02:21.642Z,99545.25
2024-02-24T23:04:48.192Z,99533.78
2024-02-24T23:07:17.019Z,99534.53
2024-02-24T23:09:44.558Z,99537.00
2024-02-24T23:12:12.374Z,99535.41
2024-02-24T23:14:39.908Z,99537.31
2024-02-24T23:17:07.391Z,99544.19
2024-02-24T23:19:34.946Z,99530.50
2024-02-24T23:22:02.476Z,99540.59
2024-02-24T23:24:31.276Z,99540.88
2024-02-24T23:27:00.937Z,99537.53
2024-02-24T23:29:30.079Z,99534.31
2024-02-24T23:31:57.489Z,99545.88
2024-02-24T23:34:24.974Z,99538.47
2024-02-24T23:36:52.451Z,99547.75
2024-02-24T23:39:19.877Z,99546.16
2024-02-24T23:41:50.250Z,99546.41
2024-02-24T23:44:18.891Z,99544.31
2024-02-24T23:46:46.269Z,99544.63
2024-02-24T23:49:16.107Z,99548.28
2024-02-24T23:51:43.723Z,99541.69
2024-02-24T23:54:11.386Z,99533.06
2024-02-24T23:56:39.026Z,99543.28
2024-02-24T23:59:08.374Z,99530.31
